createdAt,value
2023-03-31T00:02:03.092Z,98473.75
2023-03-31T00:04:35.375Z,98478.22
2023-03-31T00:07:06.572Z,98478.94
2023-03-31T00:09:40.350Z,98466.97
2023-03-31T00:12:08.198Z,98469.84
2023-03-31T00:14:44.138Z,98477.53
2023-03-31T00:17:12.761Z,98468.22
2023-03-31T00:19:52.853Z,98472.31
2023-03-31T00:22:29.803Z,98480.31
2023-03-31T00:25:02.345Z,98469.66
2023-03-31T00:27:30.486Z,98473.34
2023-03-31T00:30:00.609Z,98470.25
2023-03-31T00:35:17.151Z,98458.59
2023-03-31T00:37:51.252Z,98469.25
2023-03-31T00:40:25.628Z,98465.03
2023-03-31T00:45:46.872Z,98465.84
2023-03-31T00:48:30.580Z,98458.50
2023-03-31T00:51:07.270Z,98451.31
2023-03-31T00:53:41.095Z,98451.84
2023-03-31T00:56:18.321Z,98446.31
2023-03-31T00:58:55.346Z,98443.97
2023-03-31T01:01:39.101Z,98429.19
2023-03-31T01:04:10.389Z,98410.56
2023-03-31T01:06:57.523Z,98345.25
2023-03-31T01:09:43.200Z,98410.28
2023-03-31T01:12:20.262Z,98407.50
2023-03-31T01:14:54.681Z,98415.38
2023-03-31T01:17:31.276Z,98412.53
2023-03-31T01:20:42.820Z,98411.81
2023-03-31T01:23:30.144Z,98410.13
2023-03-31T01:26:58.430Z,98400.97
2023-03-31T01:30:00.063Z,98404.03
2023-03-31T01:32:43.819Z,98395.31
2023-03-31T01:38:40.274Z,98388.03
2023-03-31T01:41:28.169Z,98387.16
2023-03-31T01:44:09.178Z,98385.25
2023-03-31T01:46:50.405Z,98380.38
2023-03-31T01:49:50.734Z,98369.63
2023-03-31T01:52:51.717Z,98362.63
2023-03-31T01:56:04.283Z,98359.19
2023-03-31T01:58:55.145Z,98356.59
2023-03-31T02:02:03.575Z,98350.34
2023-03-31T02:04:49.341Z,98339.91
2023-03-31T02:07:31.160Z,98341.97
2023-03-31T02:10:05.185Z,98343.59
2023-03-31T02:12:41.919Z,98337.38
2023-03-31T02:15:19.907Z,98340.47
2023-03-31T02:17:56.781Z,98336.63
2023-03-31T02:20:35.011Z,98345.06
2023-03-31T02:23:11.906Z,98332.22
2023-03-31T02:26:02.109Z,98292.03
2023-03-31T02:28:41.366Z,98291.19
2023-03-31T02:31:36.437Z,98317.22
2023-03-31T02:34:29.822Z,98306.03
2023-03-31T02:37:01.563Z,98306.22
2023-03-31T02:39:40.280Z,98299.19
2023-03-31T02:42:14.950Z,98293.34
2023-03-31T02:47:39.659Z,98295.72
2023-03-31T02:50:17.886Z,98304.91
2023-03-31T02:53:14.340Z,98295.28
2023-03-31T02:55:59.987Z,98296.53
2023-03-31T02:59:04.610Z,98295.91
2023-03-31T03:01:58.330Z,98293.84
2023-03-31T03:05:13.412Z,98299.38
2023-03-31T03:08:21.192Z,98301.63
2023-03-31T03:11:13.094Z,98298.78
2023-03-31T03:13:59.613Z,98302.47
2023-03-31T03:17:00.444Z,98298.09
2023-03-31T03:19:41.338Z,98290.41
2023-03-31T03:22:12.069Z,98303.00
2023-03-31T03:24:45.038Z,98290.75
2023-03-31T03:27:16.271Z,98299.44
2023-03-31T03:29:50.532Z,98259.94
2023-03-31T03:32:30.203Z,98289.81
2023-03-31T03:35:17.277Z,98279.16
2023-03-31T03:37:48.935Z,98278.94
2023-03-31T03:40:19.141Z,98250.31
2023-03-31T03:42:51.591Z,98278.03
2023-03-31T03:45:24.166Z,98280.59
2023-03-31T03:47:55.416Z,98274.25
2023-03-31T03:50:39.567Z,98277.63
2023-03-31T03:53:23.514Z,98262.38
2023-03-31T03:55:54.367Z,98237.97
2023-03-31T03:58:32.755Z,98252.38
2023-03-31T04:01:04.446Z,98256.88
2023-03-31T04:03:32.841Z,98249.13
2023-03-31T04:06:07.573Z,98255.44
2023-03-31T04:08:35.896Z,98244.56
2023-03-31T04:11:20.008Z,98245.38
2023-03-31T04:16:35.486Z,98238.88
2023-03-31T04:19:11.435Z,98242.75
2023-03-31T04:21:48.508Z,98227.50
2023-03-31T04:24:24.308Z,98233.06
2023-03-31T04:26:57.995Z,98235.59
2023-03-31T04:29:29.872Z,98231.06
2023-03-31T04:31:58.804Z,98214.94
2023-03-31T04:34:35.153Z,98229.25
2023-03-31T04:37:14.205Z,98234.38
2023-03-31T04:39:56.207Z,98236.50
2023-03-31T04:42:24.859Z,98222.41
2023-03-31T04:44:55.935Z,98225.38
2023-03-31T04:47:24.572Z,98222.19
2023-03-31T04:49:54.231Z,98222.41
2023-03-31T04:52:22.807Z,98209.72
2023-03-31T04:55:04.843Z,98156.47
2023-03-31T04:57:41.506Z,98211.53
2023-03-31T05:00:20.135Z,98209.31
2023-03-31T05:02:58.918Z,98213.00
2023-03-31T05:05:39.265Z,98209.59
2023-03-31T05:08:15.356Z,98202.53
2023-03-31T05:10:50.359Z,98206.50
2023-03-31T05:13:27.364Z,98197.72
2023-03-31T05:16:12.862Z,98192.69
2023-03-31T05:18:44.092Z,98193.50
2023-03-31T05:21:34.765Z,98192.69
2023-03-31T05:24:06.405Z,98190.44
2023-03-31T05:26:47.917Z,98204.00
2023-03-31T05:29:20.698Z,98196.09
2023-03-31T05:31:57.879Z,98204.94
2023-03-31T05:34:36.239Z,98199.50
2023-03-31T05:37:08.163Z,98206.31
2023-03-31T05:39:42.977Z,98195.16
2023-03-31T05:42:15.332Z,98202.63
2023-03-31T05:44:50.287Z,98182.00
2023-03-31T05:47:24.728Z,98181.97
2023-03-31T05:50:01.070Z,98185.50
2023-03-31T05:52:45.967Z,98181.34
2023-03-31T05:55:30.444Z,98180.44
2023-03-31T05:58:03.065Z,98181.28
2023-03-31T06:00:33.994Z,98179.50
2023-03-31T06:03:15.959Z,98177.06
2023-03-31T06:05:49.583Z,98176.03
2023-03-31T06:08:28.444Z,98168.94
2023-03-31T06:10:57.513Z,98166.50
2023-03-31T06:13:32.263Z,98178.41
2023-03-31T06:18:58.564Z,98153.22
2023-03-31T06:21:31.153Z,98139.09
2023-03-31T06:24:04.890Z,98151.59
2023-03-31T06:26:39.121Z,98154.88
2023-03-31T06:29:17.265Z,98148.09
2023-03-31T06:31:48.933Z,98144.84
2023-03-31T06:34:21.313Z,98140.94
2023-03-31T06:36:53.409Z,98146.03
2023-03-31T06:39:24.756Z,98156.13
2023-03-31T06:41:57.279Z,98141.59
2023-03-31T06:44:31.878Z,98127.78
2023-03-31T06:47:09.449Z,98127.66
2023-03-31T06:49:39.700Z,98132.34
2023-03-31T06:52:13.447Z,98139.03
2023-03-31T06:54:43.973Z,98141.94
2023-03-31T06:57:15.533Z,98144.56
2023-03-31T06:59:45.976Z,98137.03
2023-03-31T07:02:16.880Z,98154.56
2023-03-31T07:04:48.001Z,98152.19
2023-03-31T07:07:20.588Z,98158.34
2023-03-31T07:09:51.257Z,98151.88
2023-03-31T07:12:29.410Z,98139.75
2023-03-31T07:15:03.266Z,98150.72
2023-03-31T07:17:37.514Z,98160.50
2023-03-31T07:20:23.551Z,98149.13
2023-03-31T07:23:00.325Z,98138.94
2023-03-31T07:25:29.014Z,98140.78
2023-03-31T07:28:10.340Z,98130.84
2023-03-31T07:30:46.291Z,98105.13
2023-03-31T07:33:17.181Z,98119.06
2023-03-31T07:36:10.124Z,98111.44
2023-03-31T07:38:43.125Z,98105.53
2023-03-31T07:41:13.394Z,98099.66
2023-03-31T07:43:46.150Z,98088.91
2023-03-31T07:46:24.244Z,98082.94
2023-03-31T07:49:06.829Z,98064.56
2023-03-31T07:51:40.514Z,98063.41
2023-03-31T07:54:18.288Z,98055.25
2023-03-31T07:56:48.990Z,98009.13
2023-03-31T07:59:27.994Z,98041.19
2023-03-31T08:01:59.521Z,98041.19
2023-03-31T08:04:32.384Z,98046.81
2023-03-31T08:07:00.537Z,98045.72
2023-03-31T08:09:31.133Z,98036.72
2023-03-31T08:12:01.349Z,98031.50
2023-03-31T08:17:25.147Z,97948.09
2023-03-31T08:19:58.997Z,97991.00
2023-03-31T08:22:36.299Z,98004.25
2023-03-31T08:25:08.306Z,98003.31
2023-03-31T08:27:52.131Z,98006.88
2023-03-31T08:30:23.726Z,98012.13
2023-03-31T08:32:54.914Z,98001.47
2023-03-31T08:35:30.000Z,98016.16
2023-03-31T08:38:03.977Z,98007.78
2023-03-31T08:40:46.468Z,98007.09
2023-03-31T08:43:26.530Z,98014.88
2023-03-31T08:46:03.645Z,98002.97
2023-03-31T08:49:03.616Z,98005.97
2023-03-31T08:51:46.004Z,98003.34
2023-03-31T08:54:39.922Z,97995.19
2023-03-31T08:57:17.078Z,98004.84
2023-03-31T08:59:55.567Z,97995.66
2023-03-31T09:02:55.347Z,97990.50
2023-03-31T09:06:00.807Z,97976.00
2023-03-31T09:08:49.661Z,97983.81
2023-03-31T09:11:57.668Z,97974.66
2023-03-31T09:15:18.896Z,97969.47
2023-03-31T09:17:52.214Z,97958.50
2023-03-31T09:20:48.594Z,97955.22
2023-03-31T09:24:00.363Z,97943.22
2023-03-31T09:26:40.466Z,97941.41
2023-03-31T09:29:27.467Z,97935.28
2023-03-31T09:32:02.532Z,97940.06
2023-03-31T09:37:29.149Z,97930.78
2023-03-31T09:40:10.436Z,97936.69
2023-03-31T09:42:44.837Z,97931.31
2023-03-31T09:45:23.254Z,97937.63
2023-03-31T09:48:03.422Z,97929.81
2023-03-31T09:50:35.321Z,97933.91
2023-03-31T09:53:07.381Z,97931.63
2023-03-31T09:56:13.716Z,97927.94
2023-03-31T09:58:47.305Z,97886.56
2023-03-31T10:01:21.863Z,97926.63
2023-03-31T10:03:55.307Z,97931.31
2023-03-31T10:06:33.665Z,97942.75
2023-03-31T10:09:09.613Z,97915.16
2023-03-31T10:14:46.337Z,97924.34
2023-03-31T10:17:26.557Z,97906.56
2023-03-31T10:20:50.144Z,97908.84
2023-03-31T10:23:34.898Z,97900.84
2023-03-31T10:26:12.544Z,97902.53
2023-03-31T10:28:41.356Z,97888.03
2023-03-31T10:31:12.938Z,97879.59
2023-03-31T10:33:51.157Z,97876.88
2023-03-31T10:36:33.914Z,97880.91
2023-03-31T10:39:09.556Z,97888.13
2023-03-31T10:41:37.674Z,97870.84
2023-03-31T10:44:11.178Z,97876.94
2023-03-31T10:47:00.258Z,97878.56
2023-03-31T10:49:34.547Z,97876.81
2023-03-31T10:52:06.075Z,97865.03
2023-03-31T10:54:40.321Z,97855.03
2023-03-31T10:57:11.073Z,97858.78
2023-03-31T11:00:02.076Z,97847.09
2023-03-31T11:03:04.709Z,97830.22
2023-03-31T11:05:50.045Z,97833.22
2023-03-31T11:08:36.760Z,97831.94
2023-03-31T11:11:24.173Z,97823.81
2023-03-31T11:14:08.099Z,97815.38
2023-03-31T11:17:02.151Z,97817.94
2023-03-31T11:20:05.791Z,97802.66
2023-03-31T11:22:57.283Z,97800.97
2023-03-31T11:26:07.671Z,97782.00
2023-03-31T11:29:11.385Z,97809.34
2023-03-31T11:32:24.401Z,97792.72
2023-03-31T11:35:12.105Z,97793.59
2023-03-31T11:38:21.666Z,97786.94
2023-03-31T11:41:08.255Z,97777.47
2023-03-31T11:43:58.251Z,97788.75
2023-03-31T11:46:39.152Z,97774.91
2023-03-31T11:49:39.452Z,97772.19
2023-03-31T11:52:22.377Z,97779.41
2023-03-31T11:55:07.342Z,97774.06
2023-03-31T11:57:37.813Z,97772.59
2023-03-31T12:00:31.615Z,97777.38
2023-03-31T12:03:35.930Z,97768.06
2023-03-31T12:06:23.543Z,97770.19
2023-03-31T12:09:25.810Z,97769.19
2023-03-31T12:12:40.451Z,97766.56
2023-03-31T12:15:11.063Z,97765.56
2023-03-31T12:17:42.863Z,97758.19
2023-03-31T12:20:29.191Z,97754.28
2023-03-31T12:23:16.167Z,97744.41
2023-03-31T12:26:17.572Z,97739.69
2023-03-31T12:28:49.232Z,97730.91
2023-03-31T12:31:32.664Z,97706.69
2023-03-31T12:34:12.686Z,97713.94
2023-03-31T12:37:16.604Z,97707.00
2023-03-31T12:40:19.043Z,97700.91
2023-03-31T12:43:22.793Z,97684.34
2023-03-31T12:46:13.875Z,97691.16
2023-03-31T12:49:08.050Z,97692.84
2023-03-31T12:52:29.413Z,97681.81
2023-03-31T12:55:31.326Z,97675.16
2023-03-31T12:58:39.257Z,97684.13
2023-03-31T13:01:31.765Z,97683.78
2023-03-31T13:04:24.766Z,97674.78
2023-03-31T13:06:55.564Z,97667.41
2023-03-31T13:09:45.379Z,97661.97
2023-03-31T13:12:25.314Z,97646.00
2023-03-31T13:15:03.944Z,97636.06
2023-03-31T13:17:40.458Z,97626.31
2023-03-31T13:20:38.193Z,97631.13
2023-03-31T13:23:30.029Z,97623.84
2023-03-31T13:26:04.917Z,97618.53
2023-03-31T13:28:45.977Z,97617.88
2023-03-31T13:31:17.900Z,97609.06
2023-03-31T13:34:10.628Z,97591.75
2023-03-31T13:37:11.319Z,97559.75
2023-03-31T13:40:13.447Z,97571.19
2023-03-31T13:43:09.071Z,97558.03
2023-03-31T13:46:02.193Z,97551.34
2023-03-31T13:48:59.082Z,97546.00
2023-03-31T13:52:07.145Z,97539.78
2023-03-31T13:54:58.491Z,97538.63
2023-03-31T13:58:24.805Z,97521.66
2023-03-31T14:01:22.280Z,97526.03
2023-03-31T14:04:15.219Z,97509.97
2023-03-31T14:07:07.640Z,97510.69
2023-03-31T14:09:39.554Z,97514.59
2023-03-31T14:12:39.779Z,97508.13
2023-03-31T14:15:22.846Z,97491.72
2023-03-31T14:17:52.773Z,97505.72
2023-03-31T14:20:57.875Z,97497.25
2023-03-31T14:23:50.154Z,97491.72
2023-03-31T14:26:57.552Z,97493.22
2023-03-31T14:30:04.644Z,97486.25
2023-03-31T14:33:21.364Z,97484.63
2023-03-31T14:36:07.280Z,97482.59
2023-03-31T14:38:38.525Z,97483.72
2023-03-31T14:41:14.479Z,97471.16
2023-03-31T14:43:52.408Z,97479.47
2023-03-31T14:46:36.947Z,97486.97
2023-03-31T14:49:35.954Z,97482.56
2023-03-31T14:52:26.257Z,97485.00
2023-03-31T14:55:01.093Z,97484.53
2023-03-31T14:57:34.125Z,97492.47
2023-03-31T15:00:08.334Z,97482.72
2023-03-31T15:02:44.981Z,97475.31
2023-03-31T15:05:39.567Z,97469.09
2023-03-31T15:08:26.621Z,97447.97
2023-03-31T15:11:13.411Z,97459.63
2023-03-31T15:14:04.893Z,97452.41
2023-03-31T15:16:52.821Z,97441.50
2023-03-31T15:19:34.320Z,97454.44
2023-03-31T15:22:22.110Z,97446.84
2023-03-31T15:24:53.574Z,97433.97
2023-03-31T15:27:41.424Z,97439.44
2023-03-31T15:30:22.945Z,97440.59
2023-03-31T15:33:01.352Z,97436.06
2023-03-31T15:35:40.337Z,97443.44
2023-03-31T15:38:17.021Z,97436.59
2023-03-31T15:40:53.592Z,97422.97
2023-03-31T15:43:54.967Z,97423.91
2023-03-31T15:46:51.256Z,97424.19
2023-03-31T15:49:27.403Z,97405.28
2023-03-31T15:52:12.328Z,97408.84
2023-03-31T15:54:47.414Z,97409.56
2023-03-31T15:57:34.375Z,97404.84
2023-03-31T16:00:08.435Z,97401.69
2023-03-31T16:03:11.870Z,97397.44
2023-03-31T16:06:08.196Z,97339.03
2023-03-31T16:09:01.475Z,97393.13
2023-03-31T16:11:43.438Z,97390.34
2023-03-31T16:14:17.853Z,97397.47
2023-03-31T16:17:01.976Z,97389.84
2023-03-31T16:19:45.074Z,97395.63
2023-03-31T16:22:27.392Z,97400.44
2023-03-31T16:24:58.452Z,97392.09
2023-03-31T16:27:44.305Z,97398.44
2023-03-31T16:30:23.360Z,97391.34
2023-03-31T16:33:22.995Z,97392.00
2023-03-31T16:36:03.781Z,97388.75
2023-03-31T16:38:42.799Z,97397.63
2023-03-31T16:41:17.761Z,97388.41
2023-03-31T16:43:54.210Z,97379.44
2023-03-31T16:46:24.120Z,97395.44
2023-03-31T16:48:56.366Z,97393.16
2023-03-31T16:51:27.239Z,97378.00
2023-03-31T16:54:01.363Z,97391.00
2023-03-31T16:56:42.184Z,97397.63
2023-03-31T16:59:24.816Z,97396.72
2023-03-31T17:01:59.946Z,97387.16
2023-03-31T17:04:31.927Z,97392.69
2023-03-31T17:07:06.575Z,97404.56
2023-03-31T17:09:40.710Z,97398.34
2023-03-31T17:12:11.242Z,97399.50
2023-03-31T17:14:43.240Z,97395.66
2023-03-31T17:17:16.599Z,97388.78
2023-03-31T17:19:51.663Z,97385.66
2023-03-31T17:22:21.307Z,97351.78
2023-03-31T17:25:01.383Z,97375.69
2023-03-31T17:27:38.103Z,97374.44
2023-03-31T17:30:09.346Z,97371.66
2023-03-31T17:32:40.715Z,97383.66
2023-03-31T17:35:21.604Z,97362.00
2023-03-31T17:38:02.247Z,97373.75
2023-03-31T17:40:36.787Z,97385.41
2023-03-31T17:43:11.206Z,97375.69
2023-03-31T17:45:44.821Z,97354.25
2023-03-31T17:48:22.972Z,97373.03
2023-03-31T17:50:54.666Z,97387.28
2023-03-31T17:53:25.188Z,97386.34
2023-03-31T17:56:03.746Z,97386.75
2023-03-31T18:01:18.937Z,97392.41
2023-03-31T18:06:44.938Z,97405.16
2023-03-31T18:09:13.254Z,97386.47
2023-03-31T18:11:52.811Z,97401.25
2023-03-31T18:14:21.598Z,97397.53
2023-03-31T18:16:53.241Z,97351.16
2023-03-31T18:19:27.498Z,97396.44
2023-03-31T18:21:57.598Z,97387.28
2023-03-31T18:24:33.406Z,97396.53
2023-03-31T18:27:03.788Z,97389.56
2023-03-31T18:29:32.481Z,97400.50
2023-03-31T18:32:06.183Z,97391.00
2023-03-31T18:34:41.162Z,97394.09
2023-03-31T18:37:18.052Z,97395.41
2023-03-31T18:39:48.446Z,97373.53
2023-03-31T18:42:28.454Z,97393.97
2023-03-31T18:44:59.256Z,97401.50
2023-03-31T18:47:27.893Z,97391.75
2023-03-31T18:50:14.428Z,97396.47
2023-03-31T18:52:48.929Z,97378.31
2023-03-31T18:55:26.814Z,97376.56
2023-03-31T18:58:01.487Z,97370.91
2023-03-31T19:00:33.138Z,97375.91
2023-03-31T19:03:07.963Z,97373.47
2023-03-31T19:08:31.426Z,97366.13
2023-03-31T19:11:22.440Z,97364.38
2023-03-31T19:13:54.462Z,97345.50
2023-03-31T19:16:29.512Z,97359.06
2023-03-31T19:21:49.862Z,97348.25
2023-03-31T19:27:05.769Z,97341.47
2023-03-31T19:29:36.301Z,97338.41
2023-03-31T19:32:12.648Z,97336.00
2023-03-31T19:34:46.153Z,97336.81
2023-03-31T19:37:23.610Z,97328.06
2023-03-31T19:40:07.557Z,97293.34
2023-03-31T19:42:41.226Z,97319.75
2023-03-31T19:45:15.382Z,97343.91
2023-03-31T19:47:45.239Z,97337.09
2023-03-31T19:50:17.089Z,97356.44
2023-03-31T19:52:49.729Z,97365.34
2023-03-31T19:55:23.229Z,97370.22
2023-03-31T19:57:54.994Z,97368.09
2023-03-31T20:00:24.253Z,97378.31
2023-03-31T20:03:08.295Z,97357.84
2023-03-31T20:05:37.587Z,97384.19
2023-03-31T20:08:13.693Z,97394.81
2023-03-31T20:10:48.250Z,97384.03
2023-03-31T20:13:33.363Z,97363.28
2023-03-31T20:16:18.393Z,97360.84
2023-03-31T20:18:55.867Z,97357.44
2023-03-31T20:21:27.456Z,97344.78
2023-03-31T20:24:00.493Z,97341.06
2023-03-31T20:26:34.305Z,97334.38
2023-03-31T20:29:09.715Z,97322.41
2023-03-31T20:31:41.304Z,97303.44
2023-03-31T20:34:17.106Z,97318.97
2023-03-31T20:37:08.138Z,97316.19
2023-03-31T20:39:52.181Z,97315.72
2023-03-31T20:42:36.786Z,97305.84
2023-03-31T20:45:09.978Z,97315.41
2023-03-31T20:47:40.969Z,97309.13
2023-03-31T20:53:05.580Z,97306.50
2023-03-31T20:55:35.511Z,97308.44
2023-03-31T20:58:07.625Z,97302.31
2023-03-31T21:00:38.656Z,97305.38
2023-03-31T21:03:10.772Z,97302.59
2023-03-31T21:05:51.949Z,97308.94
2023-03-31T21:08:31.547Z,97309.78
2023-03-31T21:11:03.239Z,97311.41
2023-03-31T21:13:36.574Z,97285.97
2023-03-31T21:16:08.204Z,97297.31
2023-03-31T21:18:44.557Z,97299.28
2023-03-31T21:21:14.911Z,97308.19
2023-03-31T21:23:49.336Z,97283.38
2023-03-31T21:26:24.331Z,97295.53
2023-03-31T21:28:59.727Z,97296.31
2023-03-31T21:31:34.981Z,97291.00
2023-03-31T21:37:01.337Z,97304.69
2023-03-31T21:39:30.369Z,97299.78
2023-03-31T21:42:01.604Z,97314.09
2023-03-31T21:44:44.829Z,97335.50
2023-03-31T21:47:20.728Z,97335.34
2023-03-31T21:49:49.612Z,97352.06
2023-03-31T21:52:32.613Z,97363.09
2023-03-31T21:55:05.008Z,97379.16
2023-03-31T21:57:35.863Z,97361.16
2023-03-31T22:00:12.815Z,97370.41
2023-03-31T22:02:43.614Z,97374.78
2023-03-31T22:05:20.933Z,97377.06
2023-03-31T22:07:49.288Z,97382.75
2023-03-31T22:10:25.812Z,97378.03
2023-03-31T22:12:56.045Z,97357.41
2023-03-31T22:15:34.027Z,97341.84
2023-03-31T22:18:03.315Z,97315.28
2023-03-31T22:20:36.885Z,97369.91
2023-03-31T22:23:07.880Z,97394.91
2023-03-31T22:25:39.743Z,97416.00
2023-03-31T22:28:13.093Z,97442.56
2023-03-31T22:30:51.271Z,97421.78
2023-03-31T22:36:12.599Z,97406.56
2023-03-31T22:38:50.354Z,97413.06
2023-03-31T22:41:21.899Z,97395.19
2023-03-31T22:43:54.783Z,97415.66
2023-03-31T22:46:28.640Z,97410.47
2023-03-31T22:49:01.857Z,97406.41
2023-03-31T22:51:31.364Z,97410.28
2023-03-31T22:54:09.901Z,97413.22
2023-03-31T22:56:39.759Z,97422.94
2023-03-31T22:59:24.972Z,97428.16
2023-03-31T23:01:54.562Z,97430.72
2023-03-31T23:04:24.355Z,97431.69
2023-03-31T23:06:57.215Z,97425.53
2023-03-31T23:09:30.386Z,97422.59
2023-03-31T23:12:00.902Z,97425.84
2023-03-31T23:14:31.546Z,97416.13
2023-03-31T23:17:06.024Z,97413.38
2023-03-31T23:19:52.833Z,97408.63
2023-03-31T23:22:26.627Z,97409.28
2023-03-31T23:25:02.955Z,97385.44
2023-03-31T23:27:36.782Z,97398.28
2023-03-31T23:30:07.377Z,97393.09
2023-03-31T23:32:51.960Z,97397.97
2023-03-31T23:35:24.883Z,97400.72
2023-03-31T23:37:56.100Z,97388.84
2023-03-31T23:40:29.823Z,97389.81
2023-03-31T23:43:05.716Z,97366.66
2023-03-31T23:45:36.116Z,97326.75
2023-03-31T23:48:10.580Z,97314.59
2023-03-31T23:50:46.652Z,97287.34
2023-03-31T23:53:20.192Z,97269.50
2023-03-31T23:56:25.859Z,97304.56
2023-03-31T23:59:22.285Z,97287.03
